Time;durP1;ratioP1;P1;durP2;ratioP2;P2;SDS_P1;SDS_P2;PMS_P1;PMS_P2;Temp;Humidity;BMP_temperature;BMP_pressure;BME280_temperature;BME280_humidity;BME280_pressure;Samples;Min_cycle;Max_cycle;Signal;HPM_P1;HPM_P2
2022/05/13 00:00:18;;;;;;;5.45;4.85;;;;;;;15.08;67.98;97835.48;1805961;79;20980;-74
2022/05/13 00:02:46;;;;;;;7.62;5.33;;;;;;;15.03;67.98;97831.72;1810912;79;21469;-75
2022/05/13 00:05:12;;;;;;;6.10;5.28;;;;;;;14.98;68.07;97829.27;1787092;78;21016;-75
2022/05/13 00:07:39;;;;;;;8.33;5.25;;;;;;;14.90;68.32;97828.31;1792230;79;21049;-75
2022/05/13 00:10:06;;;;;;;11.12;5.67;;;;;;;14.85;68.79;97828.14;1803744;79;20977;-74
2022/05/13 00:12:36;;;;;;;7.10;5.58;;;;;;;14.81;68.58;97831.44;1784198;79;21020;-73
2022/05/13 00:15:06;;;;;;;10.90;5.22;;;;;;;14.76;68.67;97829.02;1783240;79;21454;-73
2022/05/13 00:17:32;;;;;;;5.92;4.58;;;;;;;14.77;68.95;97826.73;1801639;79;21362;-73
2022/05/13 00:19:58;;;;;;;10.25;5.20;;;;;;;14.74;68.87;97825.51;1806265;79;21103;-77
2022/05/13 00:22:25;;;;;;;8.68;5.17;;;;;;;14.69;68.95;97834.20;1807935;79;21075;-77
2022/05/13 00:24:55;;;;;;;10.90;5.78;;;;;;;14.66;69.08;97827.71;1809270;79;21546;-74
2022/05/13 00:27:22;;;;;;;6.60;5.35;;;;;;;14.59;69.39;97832.94;1848603;77;21609;-75
2022/05/13 00:29:49;;;;;;;6.97;4.95;;;;;;;14.56;69.64;97833.95;1845242;77;21460;-74
2022/05/13 00:32:16;;;;;;;5.85;5.15;;;;;;;14.56;69.96;97838.41;1824341;78;21016;-75
2022/05/13 00:34:43;;;;;;;8.33;5.53;;;;;;;14.56;69.71;97833.07;1816506;79;21016;-74
2022/05/13 00:37:10;;;;;;;6.40;5.15;;;;;;;14.54;69.85;97829.63;1814860;79;21019;-74
2022/05/13 00:39:36;;;;;;;8.48;5.53;;;;;;;14.49;69.85;97829.86;1814646;79;21033;-75
2022/05/13 00:42:09;;;;;;;7.10;5.45;;;;;;;14.43;70.10;97825.68;1814367;79;21023;-75
2022/05/13 00:44:36;;;;;;;8.43;4.90;;;;;;;14.41;70.10;97821.36;1848890;77;20989;-75
2022/05/13 00:47:04;;;;;;;7.72;5.42;;;;;;;14.38;70.21;97820.55;1837357;77;20944;-75
2022/05/13 00:49:31;;;;;;;13.48;6.10;;;;;;;14.36;70.17;97823.77;1850314;77;21000;-74
2022/05/13 00:52:00;;;;;;;8.53;5.10;;;;;;;14.34;70.32;97819.00;1853455;77;20964;-77
2022/05/13 00:54:29;;;;;;;6.05;5.25;;;;;;;14.32;70.52;97823.52;1848197;77;20980;-74
2022/05/13 00:56:57;;;;;;;7.28;5.33;;;;;;;14.32;70.65;97818.67;1823896;78;20967;-74
2022/05/13 00:59:27;;;;;;;8.65;5.12;;;;;;;14.32;70.46;97819.52;1809696;78;21104;-71
2022/05/13 01:01:53;;;;;;;8.28;5.53;;;;;;;14.25;70.61;97822.94;1848411;77;20960;-73
2022/05/13 01:04:21;;;;;;;8.90;5.03;;;;;;;14.19;71.02;97817.91;1842499;77;21434;-76
2022/05/13 01:06:54;;;;;;;8.08;5.37;;;;;;;14.16;71.06;97815.38;1791698;79;21004;-77
2022/05/13 01:09:22;;;;;;;7.40;5.10;;;;;;;14.12;71.01;97818.66;1825572;78;21524;-77
2022/05/13 01:11:52;;;;;;;7.15;5.33;;;;;;;14.09;71.24;97813.50;1820238;78;21001;-77
2022/05/13 01:14:28;;;;;;;6.62;4.90;;;;;;;14.08;71.20;97811.75;1826280;78;20992;-77
2022/05/13 01:19:29;;;;;;;;;;;;;;;14.02;71.32;97810.70;1775278;79;21043;-78
2022/05/13 01:21:56;;;;;;;10.80;5.60;;;;;;;13.99;71.46;97809.51;1828239;78;20128;-77
2022/05/13 01:24:22;;;;;;;5.67;5.08;;;;;;;13.97;71.59;97802.95;1805115;79;21046;-76
2022/05/13 01:26:48;;;;;;;8.08;5.58;;;;;;;13.97;71.53;97802.06;1814160;79;21066;-79
2022/05/13 01:29:15;;;;;;;9.58;5.28;;;;;;;13.99;71.66;97806.39;1854813;77;20968;-76
2022/05/13 01:31:44;;;;;;;10.78;5.20;;;;;;;14.01;71.74;97796.13;1816141;77;21036;-80
2022/05/13 01:34:13;;;;;;;6.30;5.53;;;;;;;13.99;71.53;97810.38;1786120;79;22093;-75
2022/05/13 01:36:41;;;;;;;6.67;5.87;;;;;;;13.97;71.38;97806.06;1819816;78;20968;-76
2022/05/13 01:39:08;;;;;;;7.42;5.33;;;;;;;13.94;71.67;97820.39;1855617;77;20948;-76
2022/05/13 01:41:35;;;;;;;8.53;5.35;;;;;;;13.94;71.74;97822.18;1844542;78;20983;-75
2022/05/13 01:44:01;;;;;;;9.08;5.47;;;;;;;13.87;71.84;97816.27;1844466;77;21133;-76
2022/05/13 01:46:28;;;;;;;7.90;5.25;;;;;;;13.89;71.97;97818.86;1832933;77;20992;-76
2022/05/13 01:48:55;;;;;;;9.18;5.78;;;;;;;13.93;72.19;97813.34;1829770;78;21551;-75
2022/05/13 01:51:22;;;;;;;6.53;5.40;;;;;;;13.96;72.26;97819.00;1831006;78;21015;-76
2022/05/13 01:53:49;;;;;;;8.85;5.78;;;;;;;14.05;72.29;97811.03;1851701;77;21471;-75
2022/05/13 01:56:15;;;;;;;7.30;5.03;;;;;;;14.12;71.94;97813.82;1864874;77;20988;-75
2022/05/13 01:58:42;;;;;;;7.83;5.20;;;;;;;14.17;71.66;97813.14;1864869;77;21015;-75
2022/05/13 02:01:08;;;;;;;5.90;5.20;;;;;;;14.23;71.22;97810.17;1864406;77;20999;-75
2022/05/13 02:03:44;;;;;;;7.12;5.12;;;;;;;14.29;70.75;97809.02;1864737;77;21357;-75
2022/05/13 02:06:14;;;;;;;7.45;5.10;;;;;;;14.28;70.80;97809.09;1864632;77;21027;-75
2022/05/13 02:08:41;;;;;;;6.10;5.10;;;;;;;14.29;70.75;97810.81;1859664;77;20956;-75
2022/05/13 02:11:08;;;;;;;7.20;5.12;;;;;;;14.32;70.56;97811.52;1864663;77;20999;-75
2022/05/13 02:13:35;;;;;;;6.87;4.97;;;;;;;14.32;70.62;97806.19;1864875;76;21397;-76
2022/05/13 02:16:03;;;;;;;7.10;5.12;;;;;;;14.35;70.44;97810.05;1865030;76;20949;-75
2022/05/13 02:18:30;;;;;;;8.13;4.78;;;;;;;14.32;70.25;97808.86;1864933;77;20995;-75
2022/05/13 02:20:56;;;;;;;7.55;5.30;;;;;;;14.27;70.41;97810.88;1864904;77;21409;-75
2022/05/13 02:23:23;;;;;;;9.35;5.00;;;;;;;14.28;70.52;97808.61;1864974;77;20979;-75
2022/05/13 02:25:51;;;;;;;6.67;5.45;;;;;;;14.30;70.38;97810.75;1864937;77;21046;-75
2022/05/13 02:28:18;;;;;;;11.08;5.80;;;;;;;14.24;70.05;97805.69;1864961;77;20932;-76
2022/05/13 02:30:44;;;;;;;6.00;5.40;;;;;;;14.20;70.36;97810.30;1864994;76;20987;-75
2022/05/13 02:33:10;;;;;;;7.87;5.33;;;;;;;14.20;70.45;97811.64;1864923;77;21007;-75
2022/05/13 02:35:37;;;;;;;11.95;5.50;;;;;;;14.15;70.29;97809.66;1864967;77;21389;-76
2022/05/13 02:38:03;;;;;;;8.40;5.37;;;;;;;14.08;70.47;97811.75;1864943;77;21023;-76
2022/05/13 02:43:14;;;;;;;7.97;5.47;;;;;;;13.98;70.67;97802.00;1865027;77;21051;-75
2022/05/13 02:45:42;;;;;;;7.62;5.60;;;;;;;13.98;71.25;97806.45;1865052;77;21050;-76
2022/05/13 02:48:09;;;;;;;6.95;5.30;;;;;;;13.99;70.92;97808.17;1865022;77;20957;-75
2022/05/13 02:50:37;;;;;;;5.75;5.10;;;;;;;13.94;70.81;97806.20;1847726;76;21495;-76
2022/05/13 02:53:04;;;;;;;9.33;5.55;;;;;;;13.86;70.96;97812.76;1845650;78;20988;-76
2022/05/13 02:55:30;;;;;;;14.68;6.87;;;;;;;13.81;71.87;97816.10;1845625;78;21056;-75
2022/05/13 02:57:56;;;;;;;9.78;6.03;;;;;;;13.77;71.36;97810.52;1845573;78;20999;-76
2022/05/13 03:00:23;;;;;;;7.40;5.08;;;;;;;13.76;71.96;97812.78;1845596;78;20925;-76
2022/05/13 03:02:49;;;;;;;8.33;6.25;;;;;;;13.75;71.46;97805.73;1845179;78;21000;-75
2022/05/13 03:05:15;;;;;;;7.53;5.83;;;;;;;13.69;71.74;97812.20;1845566;78;20938;-76
2022/05/13 03:07:42;;;;;;;10.38;5.67;;;;;;;13.69;72.72;97813.52;1845293;78;21354;-76
2022/05/13 03:10:09;;;;;;;7.47;6.10;;;;;;;13.70;72.25;97807.26;1845539;78;20996;-76
2022/05/13 03:12:35;;;;;;;8.20;5.40;;;;;;;13.68;71.99;97806.94;1845173;78;21438;-76
2022/05/13 03:15:03;;;;;;;8.18;5.20;;;;;;;13.66;72.17;97806.99;1845308;78;21033;-76
2022/05/13 03:17:29;;;;;;;11.20;5.78;;;;;;;13.65;72.21;97804.39;1845210;77;21443;-76
2022/05/13 03:19:55;;;;;;;8.13;5.53;;;;;;;13.61;72.28;97813.48;1845236;77;21056;-75
2022/05/13 03:22:22;;;;;;;6.37;5.40;;;;;;;13.63;72.98;97815.14;1845153;77;20989;-75
2022/05/13 03:24:49;;;;;;;10.53;5.83;;;;;;;13.65;72.74;97811.93;1845386;77;20977;-75
2022/05/13 03:27:16;;;;;;;9.05;5.75;;;;;;;13.68;72.48;97811.80;1845312;78;21008;-75
2022/05/13 03:29:42;;;;;;;6.30;5.67;;;;;;;13.67;72.52;97817.19;1845107;78;21390;-75
2022/05/13 03:32:10;;;;;;;8.33;6.10;;;;;;;13.71;72.68;97812.13;1845232;77;21024;-76
2022/05/13 03:34:41;;;;;;;9.83;6.72;;;;;;;13.75;72.51;97819.05;1845275;78;21410;-75
2022/05/13 03:37:06;;;;;;;10.45;6.55;;;;;;;13.78;72.21;97824.22;1844363;78;20973;-75
2022/05/13 03:39:32;;;;;;;8.75;5.90;;;;;;;13.74;72.38;97826.62;1845131;78;21413;-76
2022/05/13 03:41:58;;;;;;;11.48;5.83;;;;;;;13.79;72.67;97827.76;1845316;78;21321;-75
2022/05/13 03:44:25;;;;;;;8.23;6.08;;;;;;;13.79;72.60;97826.43;1845112;78;21039;-76
2022/05/13 03:46:51;;;;;;;10.80;6.35;;;;;;;13.79;73.13;97827.27;1845392;78;20950;-76
2022/05/13 03:49:17;;;;;;;8.80;6.15;;;;;;;13.84;72.76;97833.25;1849049;77;20968;-76
2022/05/13 03:51:43;;;;;;;9.20;6.30;;;;;;;13.86;73.25;97831.41;1861197;77;21574;-75
2022/05/13 03:54:10;;;;;;;10.68;6.08;;;;;;;13.94;72.83;97828.38;1861637;77;21011;-75
2022/05/13 03:56:36;;;;;;;10.58;6.40;;;;;;;14.02;73.01;97832.48;1861656;77;21035;-75
2022/05/13 03:59:03;;;;;;;9.03;6.15;;;;;;;14.08;72.89;97839.73;1861489;77;21357;-76
2022/05/13 04:01:29;;;;;;;9.50;6.12;;;;;;;14.13;73.02;97841.70;1861525;77;21428;-75
2022/05/13 04:03:56;;;;;;;9.38;6.12;;;;;;;14.19;72.91;97841.90;1861445;77;21048;-75
2022/05/13 04:09:07;;;;;;;9.50;6.08;;;;;;;14.30;72.83;97845.41;1861717;77;20987;-75
2022/05/13 04:11:37;;;;;;;8.58;5.92;;;;;;;14.38;72.60;97843.21;1861365;77;21047;-75
2022/05/13 04:16:51;;;;;;;9.08;5.90;;;;;;;14.48;71.80;97849.44;1861531;77;21008;-76
2022/05/13 04:19:19;;;;;;;9.73;6.00;;;;;;;14.54;71.69;97848.30;1861294;77;21361;-76
2022/05/13 04:21:46;;;;;;;8.70;5.70;;;;;;;14.61;71.45;97849.71;1861460;77;20992;-76
2022/05/13 04:24:16;;;;;;;8.33;6.65;;;;;;;14.69;71.26;97855.55;1861391;77;21059;-76
2022/05/13 04:26:44;;;;;;;9.70;6.05;;;;;;;14.76;71.33;97854.81;1861364;77;21043;-76
2022/05/13 04:29:10;;;;;;;6.92;5.72;;;;;;;14.84;71.34;97857.10;1861590;77;20960;-76
2022/05/13 04:31:39;;;;;;;10.65;6.55;;;;;;;14.91;70.93;97856.72;1861406;77;20980;-76
2022/05/13 04:34:08;;;;;;;11.45;6.22;;;;;;;14.98;70.70;97851.07;1861277;77;21011;-76
2022/05/13 04:36:35;;;;;;;11.85;6.22;;;;;;;15.04;70.44;97855.63;1861480;77;21038;-76
2022/05/13 04:39:02;;;;;;;8.55;6.30;;;;;;;15.12;70.28;97849.91;1861579;77;21011;-76
2022/05/13 04:44:15;;;;;;;11.55;6.30;;;;;;;15.27;69.86;97857.63;1861646;77;20954;-76
2022/05/13 04:46:42;;;;;;;7.58;6.17;;;;;;;15.34;69.57;97860.84;1861087;77;21689;-76
2022/05/13 04:49:09;;;;;;;8.45;5.97;;;;;;;15.41;69.50;97859.57;1861526;77;21077;-76
2022/05/13 04:51:36;;;;;;;11.10;6.35;;;;;;;15.49;69.20;97857.84;1861587;77;21066;-76
2022/05/13 04:54:04;;;;;;;9.38;6.12;;;;;;;15.56;68.86;97858.38;1861437;77;21025;-76
2022/05/13 04:56:31;;;;;;;12.30;6.15;;;;;;;15.64;68.42;97856.64;1861515;77;20979;-76
2022/05/13 04:58:58;;;;;;;8.48;6.00;;;;;;;15.76;68.35;97864.48;1861585;77;21404;-76
2022/05/13 05:01:25;;;;;;;10.90;6.35;;;;;;;15.85;67.88;97864.00;1861406;77;21078;-76
2022/05/13 05:03:52;;;;;;;12.18;6.53;;;;;;;15.93;67.68;97864.92;1861652;77;21062;-76
2022/05/13 05:06:20;;;;;;;8.65;6.30;;;;;;;15.99;67.69;97860.64;1861671;77;20998;-76
2022/05/13 05:08:46;;;;;;;7.92;6.45;;;;;;;16.02;67.51;97860.45;1861535;77;20995;-76
2022/05/13 05:11:15;;;;;;;17.00;8.13;;;;;;;16.09;67.56;97855.19;1861574;77;20974;-76
2022/05/13 05:13:44;;;;;;;12.35;7.58;;;;;;;16.15;67.38;97861.14;1861592;77;21045;-76
2022/05/13 05:16:12;;;;;;;15.83;7.25;;;;;;;16.19;67.45;97863.55;1861433;77;21450;-76
2022/05/13 05:18:40;;;;;;;10.30;6.92;;;;;;;16.27;67.40;97865.80;1861713;77;21021;-76
2022/05/13 05:21:08;;;;;;;11.38;7.30;;;;;;;16.34;67.27;97859.18;1861489;77;20927;-76
2022/05/13 05:23:38;;;;;;;12.13;7.33;;;;;;;16.43;67.06;97859.59;1861571;77;20959;-76
2022/05/13 05:26:06;;;;;;;11.10;6.70;;;;;;;16.53;66.93;97865.30;1861462;77;21537;-76
2022/05/13 05:28:33;;;;;;;8.98;7.00;;;;;;;16.63;66.83;97863.38;1861360;77;21026;-76
2022/05/13 05:31:02;;;;;;;12.07;8.40;;;;;;;16.78;66.66;97858.09;1861474;77;20962;-76
2022/05/13 05:33:29;;;;;;;13.32;7.47;;;;;;;16.87;66.47;97866.06;1861468;77;20963;-76
2022/05/13 05:35:56;;;;;;;17.07;6.75;;;;;;;16.97;66.29;97861.03;1861421;77;21006;-76
2022/05/13 05:38:23;;;;;;;11.70;6.65;;;;;;;17.07;66.12;97859.57;1861658;77;21021;-76
2022/05/13 05:40:50;;;;;;;7.87;6.35;;;;;;;17.17;65.82;97862.59;1861796;77;20935;-76
2022/05/13 05:43:17;;;;;;;13.43;6.37;;;;;;;17.25;65.73;97854.09;1861615;77;20987;-76
2022/05/13 05:45:44;;;;;;;9.70;7.25;;;;;;;17.36;65.66;97855.64;1861702;77;21709;-76
2022/05/13 05:48:13;;;;;;;12.03;6.35;;;;;;;17.49;65.51;97862.50;1861644;77;21058;-76
2022/05/13 05:50:40;;;;;;;11.88;6.87;;;;;;;17.64;65.41;97856.67;1861727;77;21106;-76
2022/05/13 05:53:06;;;;;;;16.82;7.05;;;;;;;17.79;64.86;97864.73;1861588;77;20995;-76
2022/05/13 05:58:18;;;;;;;;;;;;;;;18.04;64.55;97857.84;1864362;77;21014;-76
2022/05/13 06:00:49;;;;;;;15.15;7.05;;;;;;;18.12;64.56;97861.42;1861567;77;20139;-76
2022/05/13 06:03:17;;;;;;;9.88;7.00;;;;;;;18.21;64.33;97867.55;1861416;77;20987;-76
2022/05/13 06:05:47;;;;;;;8.73;6.87;;;;;;;18.31;64.24;97864.66;1861628;77;21359;-76
2022/05/13 06:08:13;;;;;;;13.95;7.72;;;;;;;18.49;63.83;97864.92;1861656;77;21412;-77
2022/05/13 06:10:39;;;;;;;11.45;7.60;;;;;;;18.68;63.96;97867.30;1861614;77;21081;-76
2022/05/13 06:13:06;;;;;;;11.25;6.95;;;;;;;18.83;63.67;97863.61;1861537;77;20995;-77
2022/05/13 06:15:33;;;;;;;14.65;7.12;;;;;;;18.94;63.34;97868.75;1861602;77;21441;-75
2022/05/13 06:18:00;;;;;;;12.28;7.17;;;;;;;18.98;63.02;97862.22;1861133;77;21075;-75
2022/05/13 06:20:29;;;;;;;12.78;6.55;;;;;;;19.05;62.77;97865.39;1861598;77;20955;-76
2022/05/13 06:22:56;;;;;;;11.35;6.65;;;;;;;19.13;62.77;97857.66;1861623;77;20991;-76
2022/05/13 06:25:24;;;;;;;12.82;6.45;;;;;;;19.24;62.73;97859.63;1861377;77;21054;-76
2022/05/13 06:27:52;;;;;;;12.50;6.80;;;;;;;19.33;62.45;97860.36;1861700;77;21022;-76
2022/05/13 06:30:27;;;;;;;8.70;6.45;;;;;;;19.40;62.18;97862.15;1861613;77;21022;-76
2022/05/13 06:32:55;;;;;;;13.05;6.83;;;;;;;19.48;62.24;97862.47;1861614;77;21498;-76
2022/05/13 06:35:23;;;;;;;24.35;16.20;;;;;;;19.55;62.03;97866.09;1861640;77;21428;-76
2022/05/13 06:37:51;;;;;;;20.77;11.85;;;;;;;19.60;61.96;97864.80;1861787;77;20955;-76
2022/05/13 06:40:18;;;;;;;14.23;7.70;;;;;;;19.68;61.65;97856.70;1861422;77;21404;-76
2022/05/13 06:42:45;;;;;;;12.68;7.67;;;;;;;19.78;61.73;97855.96;1861529;77;21014;-76
2022/05/13 06:45:12;;;;;;;11.33;7.12;;;;;;;19.86;61.36;97847.83;1861752;77;20979;-76
2022/05/13 06:47:39;;;;;;;10.28;6.90;;;;;;;19.96;61.39;97851.58;1861607;77;20963;-76
2022/05/13 06:50:07;;;;;;;10.90;7.12;;;;;;;20.04;61.31;97851.94;1861295;77;21007;-76
2022/05/13 06:52:34;;;;;;;12.33;6.87;;;;;;;20.16;61.15;97852.03;1861473;77;20994;-76
2022/05/13 06:55:01;;;;;;;11.33;6.83;;;;;;;20.26;61.03;97855.77;1861685;77;20951;-76
2022/05/13 06:57:27;;;;;;;10.55;6.87;;;;;;;20.38;60.95;97854.03;1861615;77;20986;-76
2022/05/13 06:59:53;;;;;;;12.73;6.75;;;;;;;20.60;60.55;97855.66;1861636;77;21022;-76
2022/05/13 07:02:22;;;;;;;12.68;6.65;;;;;;;20.83;59.95;97858.86;1861670;77;21042;-76
2022/05/13 07:04:48;;;;;;;7.35;6.42;;;;;;;21.07;59.85;97858.04;1861515;77;20968;-77
2022/05/13 07:07:15;;;;;;;11.08;6.28;;;;;;;21.33;59.66;97855.20;1861613;77;21007;-76
2022/05/13 07:09:41;;;;;;;11.73;6.95;;;;;;;21.54;59.13;97857.21;1861632;77;21470;-76
2022/05/13 07:12:09;;;;;;;9.93;6.20;;;;;;;21.71;58.10;97850.55;1861596;77;21093;-76
2022/05/13 07:14:36;;;;;;;10.68;5.60;;;;;;;21.87;58.22;97851.55;1861724;77;21014;-77
2022/05/13 07:17:04;;;;;;;13.68;6.47;;;;;;;21.92;57.79;97847.64;1861635;77;21073;-76
2022/05/13 07:19:31;;;;;;;10.58;6.17;;;;;;;21.91;57.63;97845.42;1861722;77;21021;-76
2022/05/13 07:21:57;;;;;;;13.78;6.45;;;;;;;21.96;57.39;97839.17;1861502;77;20991;-76
2022/05/13 07:24:23;;;;;;;14.13;6.37;;;;;;;22.00;57.26;97849.22;1861550;77;21109;-75
2022/05/13 07:26:50;;;;;;;10.25;5.78;;;;;;;22.01;56.95;97842.36;1861431;77;21041;-75
2022/05/13 07:29:17;;;;;;;11.43;6.05;;;;;;;22.08;56.80;97843.25;1861524;77;21411;-76
2022/05/13 07:31:43;;;;;;;12.68;6.30;;;;;;;22.13;56.40;97839.69;1861691;77;20987;-75
2022/05/13 07:34:09;;;;;;;7.70;6.00;;;;;;;22.14;55.86;97843.58;1861855;77;21031;-76
2022/05/13 07:36:36;;;;;;;14.03;6.08;;;;;;;22.21;55.83;97847.17;1861594;77;21428;-75
2022/05/13 07:41:49;;;;;;;10.48;6.12;;;;;;;22.34;55.62;97844.33;1861539;77;20991;-75
2022/05/13 07:44:16;;;;;;;11.35;6.70;;;;;;;22.51;54.85;97841.11;1861678;77;21078;-75
2022/05/13 07:46:44;;;;;;;9.58;5.90;;;;;;;22.73;54.51;97836.70;1861537;77;21482;-75
2022/05/13 07:49:11;;;;;;;10.13;5.53;;;;;;;22.93;53.80;97833.66;1861505;77;21031;-75
2022/05/13 07:51:37;;;;;;;9.88;6.30;;;;;;;23.09;53.79;97831.06;1856870;77;21400;-75
2022/05/13 07:54:06;;;;;;;11.03;5.72;;;;;;;23.25;53.47;97823.00;1853844;77;21034;-75
2022/05/13 07:56:33;;;;;;;10.13;6.10;;;;;;;23.49;51.73;97833.58;1853699;77;21015;-76
2022/05/13 07:59:02;;;;;;;13.28;5.83;;;;;;;23.72;52.35;97824.83;1853834;77;21082;-75
2022/05/13 08:01:27;;;;;;;9.40;6.00;;;;;;;23.99;52.08;97823.91;1853825;77;21051;-75
2022/05/13 08:03:53;;;;;;;9.00;6.62;;;;;;;24.24;51.52;97820.41;1853942;77;21535;-75
2022/05/13 08:06:20;;;;;;;12.80;5.97;;;;;;;24.47;50.69;97816.14;1853880;77;20970;-74
2022/05/13 08:08:50;;;;;;;10.55;5.97;;;;;;;24.66;50.46;97818.03;1853997;77;20963;-75
2022/05/13 08:11:16;;;;;;;11.00;7.37;;;;;;;24.78;49.48;97810.14;1853303;77;21073;-75
2022/05/13 08:13:42;;;;;;;15.38;6.25;;;;;;;24.89;49.56;97820.05;1853796;77;21069;-76
2022/05/13 08:16:12;;;;;;;12.47;6.20;;;;;;;24.90;48.83;97816.33;1853667;77;21471;-77
2022/05/13 08:18:40;;;;;;;7.83;5.58;;;;;;;24.86;48.24;97813.53;1853743;77;21011;-74
2022/05/13 08:21:08;;;;;;;10.90;5.65;;;;;;;24.86;48.16;97808.60;1853821;77;21053;-74
2022/05/13 08:23:34;;;;;;;5.97;5.08;;;;;;;24.91;47.88;97809.06;1853616;77;21019;-75
2022/05/13 08:26:01;;;;;;;8.13;5.15;;;;;;;24.92;47.13;97809.41;1853774;77;20991;-75
2022/05/13 08:28:27;;;;;;;28.12;22.07;;;;;;;24.95;45.72;97807.76;1853948;77;21022;-75
2022/05/13 08:30:54;;;;;;;31.55;25.43;;;;;;;24.94;46.42;97797.08;1853656;77;21562;-75
2022/05/13 08:33:20;;;;;;;7.15;5.50;;;;;;;24.95;46.45;97799.63;1854034;77;20979;-75
2022/05/13 08:35:51;;;;;;;7.50;5.15;;;;;;;24.96;46.33;97801.84;1854017;77;21435;-75
2022/05/13 08:38:24;;;;;;;11.30;5.08;;;;;;;24.99;46.64;97804.29;1852225;77;20947;-75
2022/05/13 08:40:59;;;;;;;10.58;5.17;;;;;;;25.00;45.92;97793.28;1854181;77;21038;-75
2022/05/13 08:43:29;;;;;;;6.17;5.03;;;;;;;25.02;45.06;97788.59;1853749;77;21103;-75
2022/05/13 08:45:59;;;;;;;6.85;4.67;;;;;;;25.06;44.27;97787.80;1853682;77;21420;-75
2022/05/13 08:48:53;;;;;;;9.28;5.00;;;;;;;25.12;44.86;97789.09;1853886;77;21061;-75
2022/05/13 08:51:29;;;;;;;8.53;5.50;;;;;;;25.16;44.94;97787.80;1853841;76;21501;-75
2022/05/13 08:53:59;;;;;;;6.72;5.55;;;;;;;25.21;44.95;97784.16;1853739;77;21003;-75
2022/05/13 08:56:28;;;;;;;9.13;5.80;;;;;;;25.33;45.37;97782.64;1853767;77;21090;-74
2022/05/13 08:59:10;;;;;;;10.15;5.30;;;;;;;25.39;44.38;97779.34;1853519;77;21388;-75
2022/05/13 09:01:55;;;;;;;11.12;5.45;;;;;;;25.37;42.87;97769.98;1852653;77;21397;-74
2022/05/13 09:04:34;;;;;;;11.83;5.22;;;;;;;25.39;43.34;97774.78;1853774;77;21081;-74
2022/05/13 09:07:04;;;;;;;5.83;5.20;;;;;;;25.45;43.90;97771.97;1853558;77;21487;-75
2022/05/13 09:09:31;;;;;;;8.48;5.12;;;;;;;25.49;43.71;97758.99;1853758;77;21037;-75
2022/05/13 09:12:01;;;;;;;8.18;5.35;;;;;;;25.51;43.33;97758.33;1854025;77;21042;-76
2022/05/13 09:14:53;;;;;;;6.80;5.00;;;;;;;25.54;43.76;97756.17;1853284;77;20979;-76
2022/05/13 09:17:38;;;;;;;7.00;5.10;;;;;;;25.64;42.91;97743.98;1854112;77;21455;-75
2022/05/13 09:20:14;;;;;;;11.75;4.80;;;;;;;25.77;43.49;97748.20;1853887;77;21042;-75
2022/05/13 09:22:46;;;;;;;9.45;4.92;;;;;;;25.84;42.20;97751.53;1854091;77;21063;-75
2022/05/13 09:25:19;;;;;;;8.87;5.13;;;;;;;25.90;42.16;97746.54;1854489;77;21419;-75
2022/05/13 09:27:48;;;;;;;11.18;5.10;;;;;;;25.95;40.65;97736.92;1853873;77;21003;-75
2022/05/13 09:30:23;;;;;;;8.33;5.15;;;;;;;26.03;41.41;97731.26;1853905;77;21046;-75
2022/05/13 09:32:50;;;;;;;11.10;5.40;;;;;;;26.16;42.13;97732.26;1854211;77;21018;-76
2022/05/13 09:35:26;;;;;;;17.75;15.20;;;;;;;26.15;41.65;97726.48;1853848;77;20998;-77
2022/05/13 09:37:52;;;;;;;9.13;6.33;;;;;;;26.16;41.97;97725.47;1854007;77;21046;-77
2022/05/13 09:40:23;;;;;;;7.83;5.62;;;;;;;26.21;41.20;97728.06;1853981;77;21055;-78
2022/05/13 09:42:52;;;;;;;8.90;5.05;;;;;;;26.31;42.24;97724.47;1852761;77;20982;-77
2022/05/13 09:45:26;;;;;;;9.83;5.72;;;;;;;26.36;42.31;97714.86;1854027;77;21011;-76
2022/05/13 09:48:08;;;;;;;6.55;4.95;;;;;;;26.43;42.37;97708.31;1854045;77;21075;-76
2022/05/13 09:50:44;;;;;;;7.12;5.22;;;;;;;26.51;42.92;97706.19;1854086;77;21494;-76
2022/05/13 09:53:26;;;;;;;10.82;5.30;;;;;;;26.61;42.63;97702.05;1853837;77;20987;-76
2022/05/13 09:55:55;;;;;;;7.12;5.60;;;;;;;26.69;41.32;97707.54;1853929;77;21451;-77
2022/05/13 09:58:26;;;;;;;9.75;5.15;;;;;;;26.78;42.05;97700.83;1853943;77;21058;-76
2022/05/13 10:00:59;;;;;;;9.05;5.67;;;;;;;26.85;41.70;97690.53;1853991;77;20955;-76
2022/05/13 10:03:36;;;;;;;10.78;5.40;;;;;;;26.95;40.78;97686.90;1854038;77;21055;-76
2022/05/13 10:06:12;;;;;;;9.38;6.08;;;;;;;27.04;39.03;97680.52;1853719;77;21007;-76
2022/05/13 10:08:54;;;;;;;7.20;5.12;;;;;;;27.11;40.02;97676.13;1853906;77;21047;-76
2022/05/13 10:14:24;;;;;;;6.53;4.67;;;;;;;27.38;40.32;97685.17;1854089;77;20952;-76
2022/05/13 10:16:53;;;;;;;7.70;5.08;;;;;;;27.48;39.36;97675.52;1798321;77;21018;-76
2022/05/13 10:19:22;;;;;;;9.63;5.42;;;;;;;27.53;39.59;97673.16;1853984;77;21073;-75
2022/05/13 10:22:09;;;;;;;8.35;5.22;;;;;;;27.57;39.20;97664.19;1853767;77;21115;-75
2022/05/13 10:24:48;;;;;;;8.43;4.72;;;;;;;27.66;39.47;97659.66;1853803;77;21030;-75
2022/05/13 10:27:24;;;;;;;8.05;4.85;;;;;;;27.80;38.90;97662.27;1853655;77;21474;-76
2022/05/13 10:29:54;;;;;;;7.15;4.70;;;;;;;28.01;38.94;97656.88;1853862;77;21454;-76
2022/05/13 10:32:26;;;;;;;10.13;6.10;;;;;;;28.22;37.53;97656.97;1853827;77;21407;-75
2022/05/13 10:34:56;;;;;;;10.05;5.20;;;;;;;28.46;38.45;97659.77;1854050;77;21451;-76
2022/05/13 10:37:29;;;;;;;9.00;4.97;;;;;;;28.65;38.67;97661.80;1853846;77;21494;-76
2022/05/13 10:40:05;;;;;;;5.05;4.53;;;;;;;29.04;37.56;97666.27;1852902;77;21412;-76
2022/05/13 10:42:56;;;;;;;10.15;4.80;;;;;;;29.80;36.67;97670.03;1853897;77;21050;-76
2022/05/13 10:45:25;;;;;;;10.93;5.92;;;;;;;30.10;35.54;97662.56;1853132;77;21070;-75
2022/05/13 10:48:02;;;;;;;11.73;6.55;;;;;;;29.63;35.58;97652.86;1853850;77;21039;-75
2022/05/13 10:50:35;;;;;;;11.55;5.15;;;;;;;29.54;36.25;97660.23;1837066;77;21127;-76
2022/05/13 10:53:07;;;;;;;11.18;5.15;;;;;;;29.38;36.53;97657.00;1848603;77;21074;-76
2022/05/13 10:55:57;;;;;;;9.43;4.92;;;;;;;29.16;36.39;97656.71;1848303;78;21003;-76
2022/05/13 10:58:36;;;;;;;7.12;5.15;;;;;;;28.95;36.13;97658.61;1848090;77;21404;-75
2022/05/13 11:01:40;;;;;;;9.10;5.33;;;;;;;28.74;36.85;97650.41;1848169;77;21441;-76
2022/05/13 11:04:17;;;;;;;10.53;5.35;;;;;;;28.52;37.02;97650.04;1847953;78;20988;-75
2022/05/13 11:07:02;;;;;;;6.20;5.05;;;;;;;28.40;37.07;97640.50;1848315;78;21042;-75
2022/05/13 11:09:44;;;;;;;9.18;5.15;;;;;;;28.15;37.05;97641.27;1848309;77;21034;-75
2022/05/13 11:12:31;;;;;;;6.55;4.90;;;;;;;27.95;37.35;97632.55;1847953;77;20991;-76
2022/05/13 11:15:32;;;;;;;9.50;5.47;;;;;;;27.80;37.56;97635.90;1848394;78;20979;-76
2022/05/13 11:18:02;;;;;;;7.87;5.00;;;;;;;27.69;37.75;97636.17;1848102;77;20967;-75
2022/05/13 11:20:32;;;;;;;8.63;4.97;;;;;;;27.44;37.82;97642.83;1848160;77;21007;-75
2022/05/13 11:23:21;;;;;;;11.57;4.95;;;;;;;27.09;37.21;97646.03;1846852;78;21027;-76
2022/05/13 11:26:08;;;;;;;13.05;5.05;;;;;;;26.42;42.77;97659.56;1848382;78;20991;-75
2022/05/13 11:28:56;;;;;;;8.68;5.62;;;;;;;25.15;47.62;97668.98;1848388;77;21003;-75
2022/05/13 11:31:47;;;;;;;11.75;6.60;;;;;;;23.81;56.60;97688.38;1847100;78;21022;-75
2022/05/13 11:34:19;;;;;;;14.35;8.43;;;;;;;21.93;75.16;97705.89;1847983;77;20987;-77
2022/05/13 11:36:49;;;;;;;16.35;8.23;;;;;;;20.44;100.00;97723.03;1848277;77;20971;-76
2022/05/13 11:39:43;;;;;;;16.70;8.45;;;;;;;19.85;100.00;97728.63;1847674;78;20952;-77
2022/05/13 11:42:18;;;;;;;21.52;9.08;;;;;;;19.65;100.00;97736.80;1848314;78;21047;-77
2022/05/13 11:44:51;;;;;;;13.18;7.65;;;;;;;19.86;100.00;97720.09;1848230;77;21142;-77
2022/05/13 11:47:36;;;;;;;10.95;7.83;;;;;;;19.75;100.00;97710.10;1847216;78;21019;-77
2022/05/13 11:50:04;;;;;;;15.35;9.10;;;;;;;19.50;100.00;97709.17;1848204;77;21011;-77
2022/05/13 11:52:44;;;;;;;15.40;9.10;;;;;;;19.08;100.00;97721.47;1855020;77;21006;-77
2022/05/13 11:55:14;;;;;;;14.95;10.10;;;;;;;19.06;100.00;97716.20;1861182;77;20995;-77
2022/05/13 11:57:44;;;;;;;12.05;8.75;;;;;;;19.13;100.00;97714.83;1861600;77;21038;-77
2022/05/13 12:00:35;;;;;;;14.00;10.15;;;;;;;19.04;100.00;97707.84;1861700;77;20982;-77
2022/05/13 12:03:12;;;;;;;15.13;9.85;;;;;;;19.05;100.00;97703.75;1861371;77;21734;-76